Portada
METAR-TAF:

METAR-TAF

Aeroports :

Sfax, Tunísia

Aeroport Internacional de Sfax

latitud: 34-43N, longitud: 010-41E, altitud: 21 m

Observació

L'informe es va fer fa 16 hores i 5 minuts, a les 15:00 UTC
Vent 7 kt del Sud/Sud-Est
Temperatura 14°C
Humitat 67%
Pressió 1007 hPa
Visibilitat 10 km o més
Núvols disperses a una alçada de 2000 ft
Núvols disperses a una alçada de 3000 ft

METAR: DTTX 201500Z 15007KT 9999 SCT020 SCT030 14/08 Q1007 NOSIG

Hora: 08:05 (07:05 UTC)


TAF: manca

Observacions i pronòstics meteorològics de més de 4000 aeroports (METAR i TAF).

Les estacions disponibles són els punts grocs i vermells al mapa.

Posi el ratolí al punt desitjat per veure el nom de l'estació.

Feu clic per veure les observacions i els pronòstics meteorològics.

Per canviar el mapa: feu clic els botons verds amb una creu de color negre per apropar; al botó verd amb un guió per allunyar la imatge; o en les fletxes verdes per a mapes adjacents.


METAR-TAF: